RJOI/IWA METAR and TAF weather

Enter ICAO airport designator
Station Type Date Time Source
RJOI METAR 2022/07/03 14:56 UTC NOAA

RJOI 031456Z 17003KT 10SM FEW035 BKN130 BKN150 27/23 A2984 RMK AO2 SLP103 T02670228 403060261 58005


Station Type Date Time Source
RJOI Decoded METAR 2022/07/03 14:56 UTC NOAA

MCAS IWAKUNI,JAPAN, JA, Japan (RJOI) 34-09N 132-14E 5M
Jul 03, 2022 - 10:56 AM EDT / 2022.07.03 1456 UTC
Wind: from the S (170 degrees) at 3 MPH (3 KT):0
Visibility: 10 mile(s):0
Sky conditions: mostly cloudy
Temperature: 80.1 F (26.7 C)
Dew Point: 73.0 F (22.8 C)
Relative Humidity: 79%
Pressure (altimeter): 29.84 in. Hg (1010 hPa)
Pressure tendency: 0.01 inches (0.5 hPa) lower than three hours ago
ob: RJOI 031456Z 17003KT 10SM FEW035 BKN130 BKN150 27/23 A2984 RMK AO2 SLP103 T02670228 403060261 58005
cycle: 15

Station Type Date Time Source
RJOI TAF 2022/07/03 13:16 UTC NOAA

TAF RJOI 0313/0413 VRB06KT 9999 FEW020 BKN035 BKN140 QNH2982INS
FM031600 VRB06KT 9999 VCSH SCT015 BKN030 BKN100 QNH2977INS
TEMPO 0316/0321 8000 -SHRA BR SCT010 BKN025 OVC060
FM040000 04006KT 9999 VCSH SCT010 BKN030 OVC060 QNH2976INS
TEMPO 0400/0406 6000 -SHRA BR SCT008 BKN015 OVC050
FM040600 07008KT 9000 -SHRA BR SCT010 BKN030 OVC080 QNH2973INS
TEMPO 0407/0413 4800 SHRA BR BKN010 BKN025 OVC050 T25/0321Z T29/0406Z LAST NO
AMDS NEXT 0321

Example: see airport list